createdAt,value
2022-12-23T00:01:23.628Z,83.01
2022-12-23T00:03:52.229Z,83.00
2022-12-23T00:06:20.835Z,82.84
2022-12-23T00:08:48.789Z,82.81
2022-12-23T00:11:19.605Z,82.61
2022-12-23T00:14:06.557Z,82.69
2022-12-23T00:16:37.798Z,82.78
2022-12-23T00:19:05.961Z,82.70
2022-12-23T00:21:35.851Z,82.58
2022-12-23T00:24:04.274Z,82.59
2022-12-23T00:26:32.144Z,82.46
2022-12-23T00:29:00.515Z,82.42
2022-12-23T00:31:28.413Z,82.49
2022-12-23T00:33:56.335Z,82.40
2022-12-23T00:36:25.615Z,82.51
2022-12-23T00:39:12.949Z,82.49
2022-12-23T00:41:59.595Z,82.41
2022-12-23T00:44:27.720Z,82.25
2022-12-23T00:46:55.615Z,82.16
2022-12-23T00:49:41.977Z,81.94
2022-12-23T00:52:15.650Z,81.98
2022-12-23T00:54:43.571Z,81.96
2022-12-23T00:57:11.692Z,81.77
2022-12-23T00:59:39.530Z,81.69
2022-12-23T01:02:26.149Z,81.57
2022-12-23T01:05:12.511Z,81.43
2022-12-23T01:07:42.382Z,81.36
2022-12-23T01:10:10.700Z,81.29
2022-12-23T01:12:38.756Z,81.16
2022-12-23T01:15:07.266Z,81.10
2022-12-23T01:17:35.075Z,81.20
2022-12-23T01:20:03.418Z,81.08
2022-12-23T01:22:31.253Z,81.16
2022-12-23T01:24:59.227Z,80.96
2022-12-23T01:27:27.067Z,81.02
2022-12-23T01:29:54.918Z,80.93
2022-12-23T01:32:22.806Z,80.91
2022-12-23T01:34:50.665Z,80.97
2022-12-23T01:37:18.523Z,80.97
2022-12-23T01:39:46.335Z,80.90
2022-12-23T01:42:35.791Z,80.94
2022-12-23T01:45:15.953Z,80.89
2022-12-23T01:47:43.803Z,80.89
2022-12-23T01:50:14.237Z,81.10
2022-12-23T01:52:47.811Z,81.06
2022-12-23T01:55:20.809Z,81.13
2022-12-23T01:57:49.185Z,81.11
2022-12-23T02:00:36.556Z,81.16
2022-12-23T02:03:22.960Z,81.27
2022-12-23T02:05:53.160Z,81.34
2022-12-23T02:08:39.521Z,81.38
2022-12-23T02:11:07.905Z,81.43
2022-12-23T02:13:59.931Z,81.46
2022-12-23T02:16:32.141Z,81.60
2022-12-23T02:19:05.781Z,81.44
2022-12-23T02:21:51.735Z,81.44
2022-12-23T02:25:07.448Z,81.53
2022-12-23T02:27:58.011Z,81.61
2022-12-23T02:30:30.988Z,81.64
2022-12-23T02:33:11.819Z,81.80
2022-12-23T02:35:51.587Z,81.94
2022-12-23T02:38:38.426Z,82.03
2022-12-23T02:41:14.545Z,82.29
2022-12-23T02:43:49.077Z,82.34
2022-12-23T02:46:34.222Z,82.43
2022-12-23T02:49:13.167Z,82.64
2022-12-23T02:51:46.633Z,82.66
2022-12-23T02:54:18.704Z,82.84
2022-12-23T02:56:51.055Z,82.94
2022-12-23T02:59:24.746Z,82.93
2022-12-23T03:01:54.189Z,83.10
2022-12-23T03:04:22.102Z,83.17
2022-12-23T03:06:54.004Z,83.32
2022-12-23T03:10:03.854Z,83.48
2022-12-23T03:12:59.306Z,83.73
2022-12-23T03:15:37.327Z,84.06
2022-12-23T03:18:31.373Z,84.18
2022-12-23T03:21:20.959Z,84.44
2022-12-23T03:24:15.571Z,84.49
2022-12-23T03:26:46.121Z,84.60
2022-12-23T03:29:18.507Z,84.84
2022-12-23T03:31:47.895Z,84.86
2022-12-23T03:34:22.625Z,84.78
2022-12-23T03:36:55.077Z,84.95
2022-12-23T03:39:29.193Z,84.93
2022-12-23T03:42:07.937Z,85.10
2022-12-23T03:44:47.995Z,84.93
2022-12-23T03:47:29.991Z,85.02
2022-12-23T03:50:05.800Z,84.95
2022-12-23T03:52:41.010Z,84.97
2022-12-23T03:55:17.791Z,85.04
2022-12-23T03:57:52.404Z,84.99
2022-12-23T04:00:20.218Z,85.03
2022-12-23T04:03:17.698Z,85.02
2022-12-23T04:05:54.022Z,85.03
2022-12-23T04:08:34.687Z,85.04
2022-12-23T04:11:03.045Z,85.00
2022-12-23T04:13:31.878Z,84.99
2022-12-23T04:16:01.684Z,85.14
2022-12-23T04:18:29.897Z,84.93
2022-12-23T04:20:57.768Z,85.02
2022-12-23T04:23:25.636Z,84.97
2022-12-23T04:25:53.434Z,85.04
2022-12-23T04:28:21.274Z,85.07
2022-12-23T04:30:49.097Z,85.11
2022-12-23T04:33:16.908Z,85.22
2022-12-23T04:35:44.863Z,85.16
2022-12-23T04:38:12.738Z,85.06
2022-12-23T04:40:40.516Z,85.08
2022-12-23T04:43:08.413Z,85.25
2022-12-23T04:45:36.233Z,85.10
2022-12-23T04:48:04.514Z,85.06
2022-12-23T04:50:32.339Z,85.10
2022-12-23T04:53:00.170Z,85.08
2022-12-23T04:55:28.055Z,85.12
2022-12-23T04:57:55.896Z,85.03
2022-12-23T05:00:23.786Z,84.99
2022-12-23T05:02:51.705Z,85.07
2022-12-23T05:05:19.713Z,85.04
2022-12-23T05:07:50.374Z,85.13
2022-12-23T05:10:18.340Z,85.18
2022-12-23T05:12:46.421Z,85.23
2022-12-23T05:15:14.283Z,85.22
2022-12-23T05:17:42.142Z,85.18
2022-12-23T05:20:10.312Z,85.09
2022-12-23T05:22:38.154Z,85.03
2022-12-23T05:25:06.664Z,85.09
2022-12-23T05:27:36.066Z,85.16
2022-12-23T05:30:04.164Z,85.06
2022-12-23T05:32:32.002Z,85.04
2022-12-23T05:34:59.858Z,85.10
2022-12-23T05:37:27.790Z,85.02
2022-12-23T05:39:55.674Z,84.98
2022-12-23T05:42:23.524Z,85.02
2022-12-23T05:44:51.383Z,85.01
2022-12-23T05:47:19.286Z,85.11
2022-12-23T05:49:47.108Z,85.02
2022-12-23T05:52:14.927Z,84.92
2022-12-23T05:54:42.762Z,84.91
2022-12-23T05:57:10.616Z,84.89
2022-12-23T05:59:38.629Z,84.99
2022-12-23T06:02:06.659Z,85.00
2022-12-23T06:04:34.862Z,84.82
2022-12-23T06:07:02.773Z,84.92
2022-12-23T06:09:30.792Z,84.98
2022-12-23T06:11:58.558Z,84.96
2022-12-23T06:14:29.190Z,84.80
2022-12-23T06:16:57.502Z,84.97
2022-12-23T06:19:26.468Z,84.79
2022-12-23T06:21:54.314Z,84.80
2022-12-23T06:24:22.202Z,84.82
2022-12-23T06:26:56.579Z,84.78
2022-12-23T06:29:25.359Z,84.73
2022-12-23T06:31:53.339Z,84.70
2022-12-23T06:34:21.256Z,84.79
2022-12-23T06:36:49.184Z,84.66
2022-12-23T06:39:16.981Z,84.94
2022-12-23T06:41:44.902Z,84.78
2022-12-23T06:57:31.709Z,84.46
2022-12-23T06:59:59.749Z,84.25
2022-12-23T07:02:27.817Z,84.38
2022-12-23T07:04:55.984Z,84.36
2022-12-23T07:07:23.979Z,84.36
2022-12-23T07:09:52.384Z,84.42
2022-12-23T07:12:20.419Z,84.38
2022-12-23T07:14:48.307Z,84.47
2022-12-23T07:17:16.431Z,84.46
2022-12-23T07:19:44.480Z,84.39
2022-12-23T07:22:12.330Z,84.36
2022-12-23T07:24:40.221Z,84.46
2022-12-23T07:27:08.159Z,84.54
2022-12-23T07:29:36.036Z,84.43
2022-12-23T07:32:04.314Z,84.39
2022-12-23T07:34:32.307Z,84.55
2022-12-23T07:37:00.230Z,84.54
2022-12-23T07:39:28.220Z,84.63
2022-12-23T07:42:09.329Z,84.60
2022-12-23T07:44:44.496Z,84.36
2022-12-23T07:47:12.435Z,84.53
2022-12-23T07:49:40.341Z,84.47
2022-12-23T07:52:08.227Z,84.52
2022-12-23T07:54:36.647Z,84.44
2022-12-23T07:57:04.600Z,84.49
2022-12-23T07:59:32.510Z,84.40
2022-12-23T08:02:00.492Z,84.50
2022-12-23T08:04:28.502Z,84.37
2022-12-23T08:06:56.516Z,84.46
2022-12-23T08:09:24.449Z,84.31
2022-12-23T08:11:52.306Z,84.37
2022-12-23T08:14:20.237Z,84.36
2022-12-23T08:16:48.448Z,84.36
2022-12-23T08:19:16.468Z,84.29
2022-12-23T08:21:44.388Z,84.34
2022-12-23T08:24:12.362Z,84.32
2022-12-23T08:26:40.446Z,84.24
2022-12-23T08:29:08.426Z,83.93
2022-12-23T08:31:36.361Z,84.01
2022-12-23T08:34:04.346Z,84.00
2022-12-23T08:36:34.932Z,83.99
2022-12-23T08:39:09.029Z,84.23
2022-12-23T08:41:40.355Z,86.35
2022-12-23T08:44:09.045Z,84.93
2022-12-23T08:46:38.004Z,84.07
2022-12-23T08:49:06.770Z,83.73
2022-12-23T08:51:35.811Z,83.86
2022-12-23T08:54:04.849Z,84.19
2022-12-23T08:56:36.534Z,86.69
2022-12-23T08:59:04.588Z,86.27
2022-12-23T09:01:34.781Z,85.43
2022-12-23T09:04:07.088Z,84.67
2022-12-23T09:06:38.746Z,84.01
2022-12-23T09:09:08.558Z,84.06
2022-12-23T09:11:37.033Z,84.07
2022-12-23T09:14:06.701Z,83.51
2022-12-23T09:16:34.780Z,82.66
2022-12-23T09:19:03.811Z,82.37
2022-12-23T09:21:31.968Z,82.43
2022-12-23T09:24:00.036Z,82.60
2022-12-23T09:26:30.120Z,82.40
2022-12-23T09:28:58.510Z,82.46
2022-12-23T09:31:30.687Z,82.38
2022-12-23T09:34:04.192Z,82.29
2022-12-23T09:36:32.190Z,82.25
2022-12-23T09:39:00.099Z,82.31
2022-12-23T09:41:37.230Z,82.35
2022-12-23T09:44:35.252Z,82.16
2022-12-23T09:47:15.632Z,82.06
2022-12-23T09:49:54.225Z,82.19
2022-12-23T09:52:33.545Z,82.33
2022-12-23T09:55:01.652Z,82.33
2022-12-23T09:58:05.138Z,82.57
2022-12-23T10:00:45.557Z,82.46
2022-12-23T10:03:24.553Z,82.64
2022-12-23T10:06:02.017Z,82.76
2022-12-23T10:08:38.980Z,82.78
2022-12-23T10:11:15.541Z,82.89
2022-12-23T10:13:52.356Z,82.88
2022-12-23T10:16:24.223Z,82.89
2022-12-23T10:19:16.056Z,82.96
2022-12-23T10:21:50.249Z,83.15
2022-12-23T10:24:24.538Z,83.06
2022-12-23T10:27:04.241Z,82.91
2022-12-23T10:29:34.216Z,82.98
2022-12-23T10:32:02.281Z,83.00
2022-12-23T10:35:00.436Z,82.96
2022-12-23T10:37:38.849Z,82.97
2022-12-23T10:40:23.763Z,82.98
2022-12-23T10:43:11.387Z,82.91
2022-12-23T10:45:45.305Z,82.69
2022-12-23T10:48:33.046Z,82.64
2022-12-23T10:51:01.192Z,82.71
2022-12-23T10:53:41.621Z,82.59
2022-12-23T10:56:10.367Z,82.58
2022-12-23T10:58:43.577Z,82.45
2022-12-23T11:01:24.040Z,82.52
2022-12-23T11:04:03.898Z,82.38
2022-12-23T11:06:37.790Z,82.34
2022-12-23T11:09:07.175Z,82.34
2022-12-23T11:11:54.536Z,82.18
2022-12-23T11:14:56.793Z,82.20
2022-12-23T11:17:28.358Z,82.30
2022-12-23T11:20:20.092Z,82.20
2022-12-23T11:22:58.313Z,82.11
2022-12-23T11:25:37.779Z,82.07
2022-12-23T11:28:08.173Z,82.00
2022-12-23T11:30:57.513Z,82.07
2022-12-23T11:33:35.352Z,82.15
2022-12-23T11:36:08.208Z,81.97
2022-12-23T11:39:06.902Z,81.84
2022-12-23T11:41:42.862Z,81.84
2022-12-23T11:44:16.880Z,81.74
2022-12-23T11:46:44.980Z,81.85
2022-12-23T11:49:18.396Z,81.84
2022-12-23T11:52:05.079Z,81.98
2022-12-23T11:54:34.417Z,81.85
2022-12-23T11:57:06.204Z,81.82
2022-12-23T11:59:36.965Z,81.64
2022-12-23T12:02:12.692Z,81.67
2022-12-23T12:04:42.535Z,81.64
2022-12-23T12:07:14.793Z,81.68
2022-12-23T12:09:43.784Z,81.63
2022-12-23T12:12:20.477Z,81.42
2022-12-23T12:14:52.092Z,81.39
2022-12-23T12:17:20.360Z,81.17
2022-12-23T12:19:54.159Z,81.12
2022-12-23T12:22:49.511Z,81.18
2022-12-23T12:25:42.362Z,81.08
2022-12-23T12:28:15.096Z,81.06
2022-12-23T12:31:12.767Z,80.89
2022-12-23T12:34:05.236Z,80.69
2022-12-23T12:36:51.463Z,80.53
2022-12-23T12:39:33.612Z,80.71
2022-12-23T12:42:12.933Z,80.62
2022-12-23T12:44:53.866Z,80.68
2022-12-23T12:48:11.636Z,80.88
2022-12-23T12:50:59.521Z,80.98
2022-12-23T12:53:30.705Z,80.91
2022-12-23T12:56:08.394Z,81.03
2022-12-23T12:58:38.420Z,81.17
2022-12-23T13:01:18.482Z,81.07
2022-12-23T13:04:03.542Z,81.02
2022-12-23T13:07:13.036Z,81.05
2022-12-23T13:09:49.979Z,81.03
2022-12-23T13:12:28.482Z,81.01
2022-12-23T13:15:04.632Z,80.95
2022-12-23T13:17:42.884Z,80.93
2022-12-23T13:20:39.982Z,81.03
2022-12-23T13:23:42.807Z,80.91
2022-12-23T13:26:38.955Z,81.03
2022-12-23T13:29:31.452Z,80.95
2022-12-23T13:32:23.323Z,80.93
2022-12-23T13:34:58.177Z,81.02
2022-12-23T13:37:35.149Z,81.13
2022-12-23T13:40:09.978Z,81.25
2022-12-23T13:42:44.581Z,81.30
2022-12-23T13:45:16.619Z,81.36
2022-12-23T13:47:59.669Z,81.29
2022-12-23T13:50:44.519Z,81.33
2022-12-23T13:53:47.870Z,81.31
2022-12-23T13:56:48.776Z,81.16
2022-12-23T13:59:16.817Z,81.18
2022-12-23T14:01:48.402Z,81.29
2022-12-23T14:04:31.167Z,81.29
2022-12-23T14:07:19.042Z,81.34
2022-12-23T14:10:11.738Z,81.37
2022-12-23T14:12:42.765Z,81.42
2022-12-23T14:15:29.621Z,81.50
2022-12-23T14:18:22.059Z,81.39
2022-12-23T14:21:38.991Z,81.32
2022-12-23T14:24:28.807Z,81.43
2022-12-23T14:27:23.313Z,81.46
2022-12-23T14:30:04.911Z,81.32
2022-12-23T14:32:52.827Z,81.32
2022-12-23T14:35:38.547Z,81.17
2022-12-23T14:38:16.058Z,81.18
2022-12-23T14:40:43.965Z,81.07
2022-12-23T14:43:51.403Z,81.06
2022-12-23T14:46:30.916Z,81.00
2022-12-23T14:49:22.514Z,81.03
2022-12-23T14:51:50.776Z,81.06
2022-12-23T14:54:38.319Z,81.09
2022-12-23T14:57:17.542Z,81.01
2022-12-23T14:59:56.877Z,81.06
2022-12-23T15:02:33.832Z,81.13
2022-12-23T15:05:02.763Z,81.17
2022-12-23T15:07:40.783Z,81.07
2022-12-23T15:10:20.598Z,80.99
2022-12-23T15:12:59.508Z,81.01
2022-12-23T15:15:30.107Z,81.05
2022-12-23T15:18:01.810Z,80.89
2022-12-23T15:20:29.945Z,80.93
2022-12-23T15:23:02.015Z,80.82
2022-12-23T15:25:38.482Z,80.88
2022-12-23T15:28:21.303Z,80.84
2022-12-23T15:30:55.183Z,80.78
2022-12-23T15:36:20.299Z,80.95
2022-12-23T15:38:48.354Z,80.92
2022-12-23T15:41:18.792Z,80.88
2022-12-23T15:43:46.739Z,81.04
2022-12-23T15:46:29.179Z,81.03
2022-12-23T15:48:58.400Z,80.88
2022-12-23T15:54:46.016Z,80.87
2022-12-23T15:57:20.790Z,80.85
2022-12-23T15:59:49.499Z,80.92
2022-12-23T16:02:59.539Z,81.05
2022-12-23T16:05:28.651Z,80.88
2022-12-23T16:08:11.981Z,80.74
2022-12-23T16:10:41.198Z,80.77
2022-12-23T16:13:20.336Z,80.75
2022-12-23T16:15:48.485Z,80.71
2022-12-23T16:18:19.677Z,80.92
2022-12-23T16:21:11.822Z,80.82
2022-12-23T16:23:48.262Z,80.72
2022-12-23T16:26:16.199Z,80.71
2022-12-23T16:28:58.058Z,80.85
2022-12-23T16:31:26.508Z,80.71
2022-12-23T16:33:59.441Z,80.78
2022-12-23T16:36:27.430Z,80.78
2022-12-23T16:39:14.070Z,80.73
2022-12-23T16:41:41.982Z,80.94
2022-12-23T16:44:09.855Z,80.97
2022-12-23T16:46:42.746Z,80.81
2022-12-23T16:49:15.609Z,80.99
2022-12-23T16:51:44.407Z,80.91
2022-12-23T16:54:15.757Z,80.85
2022-12-23T16:56:46.871Z,80.88
2022-12-23T16:59:15.017Z,80.85
2022-12-23T17:01:45.771Z,81.01
2022-12-23T17:04:14.436Z,80.80
2022-12-23T17:06:42.548Z,80.99
2022-12-23T17:09:11.377Z,80.87
2022-12-23T17:11:42.452Z,80.95
2022-12-23T17:14:28.497Z,80.82
2022-12-23T17:16:57.697Z,80.72
2022-12-23T17:19:28.840Z,80.87
2022-12-23T17:22:03.058Z,81.06
2022-12-23T17:24:31.327Z,81.01
2022-12-23T17:26:59.334Z,80.96
2022-12-23T17:29:28.311Z,81.00
2022-12-23T17:31:56.362Z,81.00
2022-12-23T17:34:24.823Z,80.83
2022-12-23T17:36:53.253Z,80.86
2022-12-23T17:39:22.128Z,81.04
2022-12-23T17:41:50.929Z,81.07
2022-12-23T17:44:19.120Z,81.05
2022-12-23T17:46:47.235Z,81.02
2022-12-23T17:49:15.118Z,80.90
2022-12-23T17:51:43.401Z,80.84
2022-12-23T17:54:22.157Z,80.92
2022-12-23T17:56:51.107Z,80.81
2022-12-23T17:59:18.982Z,80.90
2022-12-23T18:01:47.197Z,81.01
2022-12-23T18:04:15.286Z,80.93
2022-12-23T18:06:43.185Z,80.92
2022-12-23T18:09:11.094Z,80.95
2022-12-23T18:11:41.997Z,80.96
2022-12-23T18:14:17.902Z,80.95
2022-12-23T18:16:46.418Z,80.79
2022-12-23T18:19:20.676Z,80.92
2022-12-23T18:21:49.665Z,81.04
2022-12-23T18:24:18.353Z,81.00
2022-12-23T18:26:46.303Z,80.95
2022-12-23T18:29:14.244Z,81.15
2022-12-23T18:31:50.911Z,81.14
2022-12-23T18:34:21.113Z,81.17
2022-12-23T18:36:51.853Z,81.23
2022-12-23T18:39:20.440Z,81.20
2022-12-23T18:41:48.762Z,81.21
2022-12-23T18:44:20.961Z,81.13
2022-12-23T18:46:50.139Z,81.28
2022-12-23T18:49:18.622Z,81.20
2022-12-23T18:51:46.872Z,81.25
2022-12-23T18:54:16.596Z,81.25
2022-12-23T18:56:44.954Z,81.21
2022-12-23T18:59:18.574Z,81.29
2022-12-23T19:01:48.349Z,81.21
2022-12-23T19:04:16.443Z,81.19
2022-12-23T19:06:44.403Z,81.29
2022-12-23T19:09:18.407Z,81.45
2022-12-23T19:11:47.945Z,81.27
2022-12-23T19:14:16.135Z,81.29
2022-12-23T19:16:50.899Z,81.21
2022-12-23T19:19:21.274Z,81.14
2022-12-23T19:21:49.292Z,81.14
2022-12-23T19:24:17.686Z,81.15
2022-12-23T19:26:45.804Z,81.22
2022-12-23T19:29:14.589Z,81.55
2022-12-23T19:31:42.706Z,81.44
2022-12-23T19:34:15.132Z,81.55
2022-12-23T19:36:44.357Z,81.48
2022-12-23T19:39:16.641Z,81.49
2022-12-23T19:41:45.641Z,81.50
2022-12-23T19:44:14.509Z,81.58
2022-12-23T19:46:45.141Z,81.58
2022-12-23T19:49:19.592Z,81.75
2022-12-23T19:51:49.056Z,81.90
2022-12-23T19:54:18.754Z,81.80
2022-12-23T19:56:50.181Z,81.83
2022-12-23T19:59:20.642Z,81.79
2022-12-23T20:01:49.020Z,81.78
2022-12-23T20:04:17.394Z,81.88
2022-12-23T20:06:45.452Z,81.92
2022-12-23T20:09:13.609Z,82.01
2022-12-23T20:11:44.364Z,82.09
2022-12-23T20:14:15.217Z,82.05
2022-12-23T20:16:44.387Z,82.04
2022-12-23T20:19:12.276Z,82.01
2022-12-23T20:21:40.349Z,82.06
2022-12-23T20:24:09.414Z,82.29
2022-12-23T20:26:37.688Z,82.30
2022-12-23T20:29:06.067Z,82.35
2022-12-23T20:31:37.759Z,82.37
2022-12-23T20:34:08.168Z,82.18
2022-12-23T20:36:36.357Z,82.18
2022-12-23T20:39:05.447Z,82.42
2022-12-23T20:41:33.736Z,82.53
2022-12-23T20:46:49.795Z,82.74
2022-12-23T20:49:17.829Z,82.86
2022-12-23T20:51:45.736Z,83.05
2022-12-23T20:54:13.695Z,83.33
2022-12-23T20:56:41.574Z,83.37
2022-12-23T20:59:09.475Z,83.33
2022-12-23T21:01:39.807Z,83.46
2022-12-23T21:04:15.724Z,83.53
2022-12-23T21:06:44.839Z,83.63
2022-12-23T21:09:14.658Z,83.53
2022-12-23T21:11:45.741Z,83.84
2022-12-23T21:14:14.671Z,83.86
2022-12-23T21:16:43.121Z,83.80
2022-12-23T21:19:20.594Z,83.82
2022-12-23T21:21:49.716Z,83.84
2022-12-23T21:24:18.256Z,83.93
2022-12-23T21:26:51.816Z,84.04
2022-12-23T21:29:23.603Z,84.10
2022-12-23T21:31:51.596Z,84.18
2022-12-23T21:34:19.579Z,84.25
2022-12-23T21:36:47.687Z,84.06
2022-12-23T21:39:16.445Z,84.13
2022-12-23T21:41:45.467Z,84.38
2022-12-23T21:44:16.161Z,84.39
2022-12-23T21:46:44.439Z,84.40
2022-12-23T21:49:12.469Z,84.36
2022-12-23T21:51:41.575Z,84.48
2022-12-23T21:54:12.037Z,84.36
2022-12-23T21:56:41.405Z,84.42
2022-12-23T21:59:14.616Z,84.43
2022-12-23T22:01:43.500Z,84.52
2022-12-23T22:04:11.876Z,84.54
2022-12-23T22:06:43.911Z,84.53
2022-12-23T22:09:15.569Z,84.51
2022-12-23T22:11:43.953Z,84.71
2022-12-23T22:14:14.725Z,84.79
2022-12-23T22:16:42.810Z,84.83
2022-12-23T22:19:11.635Z,84.85
2022-12-23T22:21:39.906Z,84.82
2022-12-23T22:24:08.837Z,84.69
2022-12-23T22:26:37.472Z,84.64
2022-12-23T22:29:06.821Z,84.64
2022-12-23T22:31:45.419Z,84.57
2022-12-23T22:34:17.310Z,84.50
2022-12-23T22:36:45.904Z,84.50
2022-12-23T22:39:19.968Z,84.46
2022-12-23T22:41:52.783Z,84.64
2022-12-23T22:44:21.716Z,84.67
2022-12-23T22:46:49.867Z,84.79
2022-12-23T22:49:18.247Z,84.60
2022-12-23T22:51:46.365Z,84.71
2022-12-23T22:54:14.499Z,84.63
2022-12-23T22:56:43.040Z,84.60
2022-12-23T22:59:20.137Z,84.56
2022-12-23T23:01:49.548Z,84.67
2022-12-23T23:04:18.009Z,84.69
2022-12-23T23:06:46.061Z,84.62
2022-12-23T23:09:16.997Z,84.52
2022-12-23T23:11:45.451Z,84.59
2022-12-23T23:14:13.836Z,84.49
2022-12-23T23:16:42.209Z,84.63
2022-12-23T23:19:10.738Z,84.45
2022-12-23T23:21:38.613Z,84.51
2022-12-23T23:24:06.916Z,84.49
2022-12-23T23:26:34.929Z,84.49
2022-12-23T23:29:02.872Z,84.57
2022-12-23T23:31:46.141Z,84.64
2022-12-23T23:34:14.409Z,84.66
2022-12-23T23:36:42.478Z,84.59
2022-12-23T23:39:14.180Z,84.55
2022-12-23T23:41:42.583Z,84.68
2022-12-23T23:44:11.621Z,84.54
2022-12-23T23:46:40.168Z,84.51
2022-12-23T23:49:08.529Z,84.45
2022-12-23T23:51:36.635Z,84.58
2022-12-23T23:54:04.592Z,84.69
2022-12-23T23:56:38.202Z,84.86
2022-12-23T23:59:08.345Z,84.54
